createdAt,value
2023-05-19T00:01:06.725Z,7.53
2023-05-19T00:03:37.411Z,7.23
2023-05-19T00:06:08.593Z,7.47
2023-05-19T00:08:39.983Z,7.73
2023-05-19T00:11:09.934Z,8.20
2023-05-19T00:13:39.108Z,7.23
2023-05-19T00:16:09.258Z,7.47
2023-05-19T00:18:38.750Z,6.97
2023-05-19T00:21:07.908Z,7.50
2023-05-19T00:24:46.612Z,7.27
2023-05-19T00:27:17.002Z,7.23
2023-05-19T00:29:46.034Z,7.17
2023-05-19T00:32:15.754Z,6.57
2023-05-19T00:34:44.875Z,6.60
2023-05-19T00:37:14.025Z,6.87
2023-05-19T00:40:12.097Z,6.83
2023-05-19T00:42:43.048Z,6.50
2023-05-19T00:45:13.149Z,7.60
2023-05-19T00:47:42.540Z,7.10
2023-05-19T00:50:11.911Z,6.83
2023-05-19T00:52:40.885Z,7.10
2023-05-19T00:55:11.101Z,6.80
2023-05-19T00:57:40.147Z,6.30
2023-05-19T01:00:12.620Z,6.77
2023-05-19T01:02:42.366Z,7.73
2023-05-19T01:05:11.929Z,6.63
2023-05-19T01:07:41.996Z,7.30
2023-05-19T01:10:11.916Z,7.23
2023-05-19T01:12:42.233Z,7.03
2023-05-19T01:15:13.870Z,6.67
2023-05-19T01:17:49.627Z,6.83
2023-05-19T01:20:25.908Z,7.30
2023-05-19T01:23:24.037Z,7.40
2023-05-19T01:26:12.735Z,7.00
2023-05-19T01:29:04.666Z,7.60
2023-05-19T01:31:37.764Z,6.93
2023-05-19T01:34:10.802Z,7.00
2023-05-19T01:36:44.761Z,7.27
2023-05-19T01:39:15.529Z,7.27
2023-05-19T01:41:46.632Z,7.10
2023-05-19T01:44:16.183Z,7.37
2023-05-19T01:46:48.874Z,7.10
2023-05-19T01:49:17.973Z,7.87
2023-05-19T01:51:47.737Z,7.60
2023-05-19T01:54:16.734Z,7.03
2023-05-19T01:56:53.481Z,7.00
2023-05-19T01:59:37.453Z,6.83
2023-05-19T02:02:17.780Z,7.77
2023-05-19T02:04:56.749Z,6.70
2023-05-19T02:07:34.626Z,7.20
2023-05-19T02:10:08.257Z,7.17
2023-05-19T02:12:40.285Z,7.10
2023-05-19T02:15:13.376Z,7.70
2023-05-19T02:17:51.810Z,7.13
2023-05-19T02:20:22.414Z,7.50
2023-05-19T02:22:51.389Z,7.17
2023-05-19T02:25:21.580Z,7.63
2023-05-19T02:27:52.090Z,7.47
2023-05-19T02:30:21.197Z,7.83
2023-05-19T02:32:54.195Z,7.10
2023-05-19T02:35:23.336Z,8.77
2023-05-19T02:37:52.424Z,7.07
2023-05-19T02:40:21.774Z,8.53
2023-05-19T02:42:50.826Z,7.77
2023-05-19T02:45:19.780Z,7.77
2023-05-19T02:47:48.959Z,7.37
2023-05-19T02:50:19.540Z,6.43
2023-05-19T02:52:48.587Z,7.50
2023-05-19T02:55:17.957Z,6.93
2023-05-19T02:57:46.975Z,7.60
2023-05-19T03:00:17.144Z,7.23
2023-05-19T03:02:47.036Z,7.67
2023-05-19T03:05:16.132Z,6.93
2023-05-19T03:07:46.766Z,7.70
2023-05-19T03:10:15.968Z,7.87
2023-05-19T03:13:30.643Z,7.93
2023-05-19T03:16:16.830Z,7.37
2023-05-19T03:18:46.028Z,6.63
2023-05-19T03:21:15.184Z,8.13
2023-05-19T03:23:45.844Z,7.73
2023-05-19T03:26:15.161Z,7.70
2023-05-19T03:28:44.289Z,7.17
2023-05-19T03:31:14.638Z,7.43
2023-05-19T03:33:43.900Z,7.43
2023-05-19T03:36:13.586Z,7.60
2023-05-19T03:38:42.773Z,7.13
2023-05-19T03:41:13.145Z,7.13
2023-05-19T03:43:42.655Z,7.30
2023-05-19T03:46:12.476Z,7.50
2023-05-19T03:48:59.776Z,8.00
2023-05-19T03:51:51.678Z,7.77
2023-05-19T03:54:31.756Z,7.60
2023-05-19T03:57:02.470Z,9.93
2023-05-19T03:59:33.145Z,7.53
2023-05-19T04:02:02.387Z,7.63
2023-05-19T04:04:31.601Z,8.07
2023-05-19T04:07:01.273Z,7.30
2023-05-19T04:09:32.007Z,8.30
2023-05-19T04:12:03.749Z,7.20
2023-05-19T04:14:32.975Z,9.67
2023-05-19T04:17:02.330Z,7.23
2023-05-19T04:19:31.647Z,7.70
2023-05-19T04:22:01.014Z,7.43
2023-05-19T04:24:29.988Z,7.90
2023-05-19T04:27:02.476Z,7.47
2023-05-19T04:29:33.683Z,8.07
2023-05-19T04:32:06.843Z,7.97
2023-05-19T04:34:40.320Z,7.80
2023-05-19T04:37:10.539Z,7.87
2023-05-19T04:39:43.110Z,7.63
2023-05-19T04:43:13.072Z,7.33
2023-05-19T04:45:52.472Z,7.30
2023-05-19T04:48:23.389Z,7.50
2023-05-19T04:50:53.132Z,7.10
2023-05-19T04:53:22.641Z,7.93
2023-05-19T04:55:52.023Z,7.67
2023-05-19T04:58:21.398Z,7.73
2023-05-19T05:00:52.512Z,7.63
2023-05-19T05:03:22.973Z,7.23
2023-05-19T05:05:53.089Z,7.87
2023-05-19T05:08:23.341Z,8.70
2023-05-19T05:10:53.903Z,7.37
2023-05-19T05:13:25.684Z,7.30
2023-05-19T05:15:57.662Z,7.57
2023-05-19T05:18:27.749Z,7.40
2023-05-19T05:20:58.282Z,7.13
2023-05-19T05:23:28.018Z,6.80
2023-05-19T05:25:57.725Z,7.77
2023-05-19T05:28:27.454Z,6.57
2023-05-19T05:30:58.395Z,9.70
2023-05-19T05:33:27.815Z,7.13
2023-05-19T05:35:56.993Z,7.77
2023-05-19T05:38:27.012Z,8.13
2023-05-19T05:40:56.456Z,9.13
2023-05-19T05:43:25.802Z,7.33
2023-05-19T05:46:01.805Z,7.63
2023-05-19T05:48:32.188Z,9.40
2023-05-19T05:51:01.850Z,8.50
2023-05-19T05:53:36.935Z,7.23
2023-05-19T05:56:07.994Z,7.70
2023-05-19T05:58:45.465Z,7.77
2023-05-19T06:01:17.768Z,7.00
2023-05-19T06:03:47.192Z,7.63
2023-05-19T06:06:21.282Z,6.83
2023-05-19T06:08:50.622Z,7.10
2023-05-19T06:11:20.295Z,7.23
2023-05-19T06:13:50.399Z,7.67
2023-05-19T06:16:38.989Z,6.97
2023-05-19T06:19:08.234Z,7.33
2023-05-19T06:21:37.420Z,6.70
2023-05-19T06:24:07.536Z,6.83
2023-05-19T06:26:36.479Z,6.97
2023-05-19T06:29:05.862Z,6.87
2023-05-19T06:31:35.379Z,6.73
2023-05-19T06:34:17.560Z,11.77
2023-05-19T06:36:48.585Z,8.13
2023-05-19T06:39:18.841Z,6.80
2023-05-19T06:41:48.327Z,7.33
2023-05-19T06:44:37.552Z,6.10
2023-05-19T06:47:11.492Z,6.67
2023-05-19T06:49:42.614Z,7.00
2023-05-19T06:52:12.356Z,6.43
2023-05-19T06:54:41.756Z,6.43
2023-05-19T06:57:12.321Z,6.30
2023-05-19T06:59:43.356Z,6.30
2023-05-19T07:02:12.527Z,5.93
2023-05-19T07:04:44.344Z,6.60
2023-05-19T07:07:18.175Z,6.07
2023-05-19T07:09:47.383Z,6.23
2023-05-19T07:12:16.722Z,5.57
2023-05-19T07:14:46.249Z,5.70
2023-05-19T07:17:16.775Z,5.83
2023-05-19T07:19:49.261Z,6.87
2023-05-19T07:22:18.880Z,6.63
2023-05-19T07:24:48.446Z,6.30
2023-05-19T07:27:19.817Z,5.63
2023-05-19T07:29:49.057Z,6.23
2023-05-19T07:32:18.439Z,5.90
2023-05-19T07:34:49.176Z,5.40
2023-05-19T07:37:18.622Z,5.90
2023-05-19T07:39:47.953Z,6.20
2023-05-19T07:42:17.218Z,6.37
2023-05-19T07:44:46.411Z,10.73
2023-05-19T07:47:15.648Z,5.67
2023-05-19T07:49:44.887Z,5.53
2023-05-19T07:52:15.814Z,5.40
2023-05-19T07:54:44.861Z,5.47
2023-05-19T07:57:14.528Z,5.63
2023-05-19T07:59:43.654Z,4.50
2023-05-19T08:02:13.054Z,4.80
2023-05-19T08:04:42.727Z,5.37
2023-05-19T08:07:12.190Z,8.33
2023-05-19T08:09:42.978Z,5.00
2023-05-19T08:12:12.486Z,5.37
2023-05-19T08:14:41.826Z,5.03
2023-05-19T08:17:11.470Z,6.07
2023-05-19T08:19:40.884Z,4.40
2023-05-19T08:22:09.989Z,4.50
2023-05-19T08:24:40.149Z,5.50
2023-05-19T08:27:10.668Z,4.30
2023-05-19T08:29:39.820Z,4.50
2023-05-19T08:32:11.640Z,4.13
2023-05-19T08:34:42.492Z,4.57
2023-05-19T08:37:11.934Z,4.43
2023-05-19T08:39:41.097Z,4.17
2023-05-19T08:42:12.424Z,4.63
2023-05-19T08:44:42.247Z,4.50
2023-05-19T08:47:13.939Z,4.30
2023-05-19T08:49:45.979Z,4.43
2023-05-19T08:52:26.310Z,3.93
2023-05-19T08:55:06.166Z,4.20
2023-05-19T08:57:37.369Z,4.37
2023-05-19T09:00:09.163Z,4.00
2023-05-19T09:02:50.353Z,5.13
2023-05-19T09:05:29.318Z,3.80
2023-05-19T09:07:58.425Z,4.03
2023-05-19T09:10:29.111Z,3.60
2023-05-19T09:13:00.027Z,8.77
2023-05-19T09:15:29.636Z,4.67
2023-05-19T09:18:08.925Z,3.37
2023-05-19T09:20:42.522Z,4.33
2023-05-19T09:23:15.013Z,3.80
2023-05-19T09:25:51.657Z,3.90
2023-05-19T09:28:30.670Z,3.83
2023-05-19T09:31:01.460Z,4.10
2023-05-19T09:33:32.057Z,4.43
2023-05-19T09:36:01.370Z,4.30
2023-05-19T09:38:30.868Z,3.30
2023-05-19T09:41:01.099Z,3.43
2023-05-19T09:43:33.496Z,3.80
2023-05-19T09:46:05.666Z,3.87
2023-05-19T09:48:36.398Z,3.70
2023-05-19T09:51:07.755Z,3.57
2023-05-19T09:53:38.991Z,3.83
2023-05-19T09:56:11.062Z,3.97
2023-05-19T09:58:43.682Z,3.70
2023-05-19T10:01:13.920Z,3.90
2023-05-19T10:03:43.945Z,3.70
2023-05-19T10:06:15.786Z,4.07
2023-05-19T10:08:45.251Z,3.53
2023-05-19T10:11:15.923Z,3.70
2023-05-19T10:13:48.537Z,4.97
2023-05-19T10:16:18.278Z,3.60
2023-05-19T10:18:47.703Z,3.83
2023-05-19T10:21:18.037Z,4.30
2023-05-19T10:23:48.137Z,3.40
2023-05-19T10:26:17.868Z,3.80
2023-05-19T10:28:50.283Z,3.63
2023-05-19T10:31:22.528Z,3.50
2023-05-19T10:34:06.719Z,4.80
2023-05-19T10:36:46.290Z,3.73
2023-05-19T10:39:20.951Z,3.57
2023-05-19T10:42:00.500Z,3.87
2023-05-19T10:44:47.767Z,3.90
2023-05-19T10:47:24.556Z,3.57
2023-05-19T10:49:54.618Z,3.13
2023-05-19T10:52:26.685Z,3.20
2023-05-19T10:54:56.254Z,3.20
2023-05-19T10:57:32.107Z,3.40
2023-05-19T11:00:11.485Z,3.23
2023-05-19T11:02:43.094Z,3.37
2023-05-19T11:05:16.371Z,3.40
2023-05-19T11:08:02.231Z,3.33
2023-05-19T11:10:32.097Z,3.93
2023-05-19T11:13:01.730Z,3.20
2023-05-19T11:15:36.356Z,3.30
2023-05-19T11:18:06.350Z,3.43
2023-05-19T11:20:40.519Z,3.07
2023-05-19T11:23:11.125Z,3.30
2023-05-19T11:25:45.678Z,3.80
2023-05-19T11:28:17.385Z,3.27
2023-05-19T11:30:51.730Z,3.00
2023-05-19T11:33:27.347Z,4.40
2023-05-19T11:35:58.980Z,3.03
2023-05-19T11:38:30.145Z,3.00
2023-05-19T11:40:59.655Z,4.00
2023-05-19T11:43:28.969Z,3.47
2023-05-19T11:45:59.735Z,3.03
2023-05-19T11:48:31.281Z,3.23
2023-05-19T11:51:02.190Z,4.03
2023-05-19T11:53:33.379Z,3.13
2023-05-19T11:56:07.064Z,3.10
2023-05-19T11:58:38.940Z,2.90
2023-05-19T12:01:12.104Z,2.30
2023-05-19T12:03:41.893Z,3.07
2023-05-19T12:06:14.339Z,3.00
2023-05-19T12:08:43.387Z,3.10
2023-05-19T12:11:13.452Z,3.17
2023-05-19T12:13:43.073Z,3.07
2023-05-19T12:16:13.844Z,3.03
2023-05-19T12:18:44.232Z,3.70
2023-05-19T12:21:13.954Z,3.63
2023-05-19T12:23:44.128Z,2.80
2023-05-19T12:26:13.355Z,2.90
2023-05-19T12:28:42.413Z,3.10
2023-05-19T12:31:14.319Z,3.03
2023-05-19T12:33:43.856Z,2.80
2023-05-19T12:36:16.780Z,4.43
2023-05-19T12:38:47.753Z,2.97
2023-05-19T12:41:18.612Z,3.80
2023-05-19T12:43:47.654Z,2.87
2023-05-19T12:46:20.541Z,3.00
2023-05-19T12:48:49.693Z,2.80
2023-05-19T12:51:19.530Z,3.27
2023-05-19T12:53:51.092Z,3.70
2023-05-19T12:56:21.276Z,3.27
2023-05-19T12:58:56.038Z,3.10
2023-05-19T13:01:26.924Z,3.37
2023-05-19T13:03:56.400Z,2.90
2023-05-19T13:06:27.513Z,3.07
2023-05-19T13:08:57.089Z,4.77
2023-05-19T13:11:26.311Z,4.27
2023-05-19T13:13:55.964Z,3.10
2023-05-19T13:16:27.016Z,3.30
2023-05-19T13:18:56.121Z,2.97
2023-05-19T13:21:28.201Z,2.83
2023-05-19T13:23:57.508Z,4.83
2023-05-19T13:26:26.534Z,2.90
2023-05-19T13:28:55.809Z,3.30
2023-05-19T13:31:26.458Z,3.40
2023-05-19T13:33:58.879Z,3.50
2023-05-19T13:36:33.064Z,3.37
2023-05-19T13:39:03.554Z,3.23
2023-05-19T13:41:33.116Z,4.13
2023-05-19T13:44:02.591Z,3.50
2023-05-19T13:46:44.666Z,3.17
2023-05-19T13:49:17.455Z,3.50
2023-05-19T13:51:47.869Z,3.20
2023-05-19T13:54:17.559Z,3.30
2023-05-19T13:56:48.650Z,3.27
2023-05-19T13:59:18.412Z,4.33
2023-05-19T14:01:50.617Z,3.23
2023-05-19T14:04:20.826Z,3.53
2023-05-19T14:06:50.164Z,3.43
2023-05-19T14:09:19.605Z,3.27
2023-05-19T14:11:49.347Z,3.93
2023-05-19T14:14:19.009Z,4.67
2023-05-19T14:16:49.613Z,6.30
2023-05-19T14:19:18.926Z,3.70
2023-05-19T14:21:48.222Z,3.53
2023-05-19T14:24:17.896Z,3.70
2023-05-19T14:26:47.094Z,4.07
2023-05-19T14:29:16.779Z,3.40
2023-05-19T14:31:46.302Z,3.80
2023-05-19T14:34:20.908Z,3.43
2023-05-19T14:36:50.336Z,3.90
2023-05-19T14:39:19.805Z,3.60
2023-05-19T14:41:49.453Z,3.93
2023-05-19T14:44:18.741Z,3.63
2023-05-19T14:46:48.220Z,3.90
2023-05-19T14:49:18.857Z,3.80
2023-05-19T14:51:48.151Z,3.33
2023-05-19T14:54:17.260Z,3.67
2023-05-19T14:56:46.423Z,3.10
2023-05-19T14:59:15.756Z,3.53
2023-05-19T15:01:44.957Z,4.00
2023-05-19T15:04:14.282Z,3.97
2023-05-19T15:06:48.107Z,3.60
2023-05-19T15:09:19.283Z,3.80
2023-05-19T15:11:48.607Z,3.50
2023-05-19T15:14:17.993Z,3.70
2023-05-19T15:16:47.225Z,3.83
2023-05-19T15:19:16.931Z,3.50
2023-05-19T15:21:47.500Z,3.63
2023-05-19T15:24:16.884Z,4.13
2023-05-19T15:26:47.069Z,3.67
2023-05-19T15:29:16.296Z,4.30
2023-05-19T15:31:45.484Z,4.47
2023-05-19T15:34:14.502Z,3.80
2023-05-19T15:36:43.589Z,4.00
2023-05-19T15:39:14.465Z,3.83
2023-05-19T15:41:43.592Z,4.63
2023-05-19T15:44:13.123Z,4.17
2023-05-19T15:46:42.255Z,3.63
2023-05-19T15:49:12.656Z,4.30
2023-05-19T15:51:42.810Z,3.80
2023-05-19T15:54:11.739Z,4.40
2023-05-19T15:56:42.141Z,3.90
2023-05-19T15:59:11.878Z,3.70
2023-05-19T16:01:41.078Z,3.90
2023-05-19T16:04:10.402Z,3.60
2023-05-19T16:06:39.540Z,4.10
2023-05-19T16:09:08.967Z,3.50
2023-05-19T16:11:37.903Z,4.07
2023-05-19T16:14:09.012Z,4.07
2023-05-19T16:16:38.992Z,3.90
2023-05-19T16:19:08.320Z,4.20
2023-05-19T16:21:37.477Z,4.23
2023-05-19T16:24:06.963Z,4.47
2023-05-19T16:26:35.897Z,4.13
2023-05-19T16:29:05.064Z,4.20
2023-05-19T16:31:35.659Z,4.00
2023-05-19T16:34:04.955Z,4.33
2023-05-19T16:36:34.185Z,4.20
2023-05-19T16:39:03.596Z,3.57
2023-05-19T16:41:32.721Z,3.67
2023-05-19T16:44:02.304Z,4.87
2023-05-19T16:46:31.760Z,3.80
2023-05-19T16:49:02.334Z,3.80
2023-05-19T16:51:31.567Z,4.37
2023-05-19T16:54:02.165Z,4.17
2023-05-19T16:56:31.341Z,4.23
2023-05-19T16:59:00.468Z,4.07
2023-05-19T17:01:29.792Z,4.30
2023-05-19T17:03:59.177Z,4.47
2023-05-19T17:06:29.510Z,4.10
2023-05-19T17:08:58.620Z,4.33
2023-05-19T17:11:28.260Z,4.33
2023-05-19T17:13:57.324Z,3.63
2023-05-19T17:16:26.644Z,4.20
2023-05-19T17:18:56.031Z,4.37
2023-05-19T17:21:45.720Z,4.27
2023-05-19T17:24:36.617Z,4.03
2023-05-19T17:27:10.068Z,4.30
2023-05-19T17:29:39.472Z,3.73
2023-05-19T17:32:08.965Z,4.57
2023-05-19T17:34:39.283Z,3.77
2023-05-19T17:37:08.421Z,4.27
2023-05-19T17:39:39.463Z,4.90
2023-05-19T17:42:08.662Z,3.87
2023-05-19T17:44:38.015Z,4.40
2023-05-19T17:47:08.192Z,3.70
2023-05-19T17:49:37.869Z,3.87
2023-05-19T17:52:08.505Z,4.37
2023-05-19T17:54:39.658Z,4.47
2023-05-19T17:57:13.173Z,3.90
2023-05-19T17:59:43.065Z,4.17
2023-05-19T18:02:13.101Z,3.90
2023-05-19T18:04:43.814Z,4.10
2023-05-19T18:07:13.956Z,3.80
2023-05-19T18:09:46.473Z,3.77
2023-05-19T18:12:15.919Z,3.90
2023-05-19T18:14:45.818Z,4.03
2023-05-19T18:17:14.818Z,4.10
2023-05-19T18:19:44.026Z,4.17
2023-05-19T18:22:14.828Z,4.27
2023-05-19T18:24:45.622Z,4.33
2023-05-19T18:27:14.889Z,4.10
2023-05-19T18:29:43.995Z,4.40
2023-05-19T18:32:14.622Z,4.07
2023-05-19T18:34:44.262Z,4.57
2023-05-19T18:37:13.476Z,3.97
2023-05-19T18:39:42.559Z,3.77
2023-05-19T18:42:13.574Z,3.60
2023-05-19T18:44:43.846Z,3.97
2023-05-19T18:47:18.859Z,4.33
2023-05-19T18:49:48.142Z,4.57
2023-05-19T18:52:21.692Z,4.53
2023-05-19T18:54:57.736Z,4.17
2023-05-19T18:57:28.475Z,4.40
2023-05-19T18:59:58.145Z,3.97
2023-05-19T19:02:27.850Z,4.17
2023-05-19T19:04:57.686Z,4.37
2023-05-19T19:07:27.854Z,4.27
2023-05-19T19:09:57.238Z,4.10
2023-05-19T19:12:28.918Z,4.40
2023-05-19T19:14:58.374Z,4.23
2023-05-19T19:17:27.752Z,4.53
2023-05-19T19:19:57.232Z,4.63
2023-05-19T19:22:26.826Z,4.20
2023-05-19T19:24:56.365Z,4.63
2023-05-19T19:27:30.863Z,4.63
2023-05-19T19:30:01.735Z,4.63
2023-05-19T19:32:33.043Z,4.40
2023-05-19T19:35:06.313Z,4.00
2023-05-19T19:37:35.879Z,4.20
2023-05-19T19:40:06.232Z,4.53
2023-05-19T19:42:35.792Z,4.67
2023-05-19T19:45:07.518Z,5.03
2023-05-19T19:47:36.779Z,5.00
2023-05-19T19:50:07.446Z,4.83
2023-05-19T19:52:36.536Z,5.20
2023-05-19T19:55:06.852Z,4.63
2023-05-19T19:57:36.273Z,4.90
2023-05-19T20:00:09.098Z,5.10
2023-05-19T20:02:51.638Z,4.53
2023-05-19T20:05:29.025Z,4.67
2023-05-19T20:07:58.118Z,5.10
2023-05-19T20:10:27.280Z,4.50
2023-05-19T20:12:58.739Z,4.77
2023-05-19T20:15:29.339Z,4.83
2023-05-19T20:17:58.484Z,4.63
2023-05-19T20:20:27.746Z,4.80
2023-05-19T20:22:57.222Z,5.03
2023-05-19T20:25:30.815Z,5.13
2023-05-19T20:28:02.192Z,4.43
2023-05-19T20:30:33.281Z,5.03
2023-05-19T20:33:02.931Z,5.00
2023-05-19T20:35:32.615Z,5.00
2023-05-19T20:38:01.889Z,5.03
2023-05-19T20:40:31.317Z,4.80
2023-05-19T20:43:00.577Z,4.87
2023-05-19T20:45:29.880Z,5.67
2023-05-19T20:48:00.698Z,5.27
2023-05-19T20:50:29.881Z,5.70
2023-05-19T20:52:59.202Z,5.73
2023-05-19T20:55:28.416Z,4.57
2023-05-19T20:57:57.604Z,5.13
2023-05-19T21:00:27.910Z,5.03
2023-05-19T21:03:01.415Z,5.00
2023-05-19T21:05:31.215Z,4.93
2023-05-19T21:08:00.358Z,4.90
2023-05-19T21:10:29.553Z,5.00
2023-05-19T21:12:59.087Z,5.00
2023-05-19T21:15:28.326Z,5.30
2023-05-19T21:17:57.662Z,5.57
2023-05-19T21:20:29.187Z,4.73
2023-05-19T21:22:58.934Z,5.73
2023-05-19T21:25:28.381Z,5.50
2023-05-19T21:27:58.232Z,5.00
2023-05-19T21:30:27.549Z,5.47
2023-05-19T21:32:56.826Z,4.80
2023-05-19T21:35:26.260Z,4.87
2023-05-19T21:37:56.858Z,5.27
2023-05-19T21:40:26.312Z,5.67
2023-05-19T21:42:55.965Z,5.70
2023-05-19T21:45:25.272Z,8.30
2023-05-19T21:47:54.454Z,5.03
2023-05-19T21:50:23.886Z,5.20
2023-05-19T21:52:53.139Z,5.13
2023-05-19T21:55:23.900Z,5.73
2023-05-19T21:57:53.006Z,5.30
2023-05-19T22:00:22.354Z,5.67
2023-05-19T22:02:51.629Z,5.93
2023-05-19T22:05:20.883Z,6.03
2023-05-19T22:07:49.893Z,5.90
2023-05-19T22:10:19.051Z,5.57
2023-05-19T22:12:49.625Z,6.10
2023-05-19T22:15:18.821Z,5.57
2023-05-19T22:17:48.157Z,5.83
2023-05-19T22:20:17.549Z,6.20
2023-05-19T22:22:46.628Z,6.10
2023-05-19T22:25:16.022Z,6.53
2023-05-19T22:27:45.220Z,5.93
2023-05-19T22:30:16.622Z,5.70
2023-05-19T22:32:46.683Z,6.27
2023-05-19T22:35:15.817Z,5.90
2023-05-19T22:37:45.002Z,5.93
2023-05-19T22:40:14.529Z,5.77
2023-05-19T22:42:43.670Z,5.90
2023-05-19T22:45:13.039Z,6.53
2023-05-19T22:47:43.640Z,6.53
2023-05-19T22:50:12.778Z,6.97
2023-05-19T22:52:42.111Z,6.70
2023-05-19T22:55:11.376Z,6.23
2023-05-19T22:57:40.601Z,6.33
2023-05-19T23:00:14.205Z,6.53
2023-05-19T23:02:44.750Z,5.97
2023-05-19T23:05:14.005Z,6.93
2023-05-19T23:07:43.264Z,6.30
2023-05-19T23:10:12.745Z,6.60
2023-05-19T23:12:42.467Z,6.17
2023-05-19T23:15:12.201Z,6.70
2023-05-19T23:17:41.373Z,7.23
2023-05-19T23:20:14.038Z,7.10
2023-05-19T23:22:43.328Z,6.60
2023-05-19T23:25:12.608Z,6.57
2023-05-19T23:27:43.137Z,7.50
2023-05-19T23:30:13.157Z,7.17
2023-05-19T23:32:42.368Z,6.97
2023-05-19T23:35:14.590Z,6.87
2023-05-19T23:37:44.074Z,6.67
2023-05-19T23:40:13.878Z,6.80
2023-05-19T23:42:44.610Z,7.23
2023-05-19T23:45:13.873Z,7.10
2023-05-19T23:47:42.929Z,7.00
2023-05-19T23:50:13.332Z,7.13
2023-05-19T23:52:42.604Z,8.30
2023-05-19T23:55:13.101Z,7.63
2023-05-19T23:57:42.344Z,7.40
